Time;durP1;ratioP1;P1;durP2;ratioP2;P2;SDS_P1;SDS_P2;PMS_P1;PMS_P2;Temp;Humidity;BMP_temperature;BMP_pressure;BME280_temperature;BME280_humidity;BME280_pressure;Samples;Min_cycle;Max_cycle;Signal;HPM_P1;HPM_P2
2021/04/04 00:01:26;;;;;;;6.53;4.40;;;7.00;55.10;;;;;;5002032;28;20057;-61
2021/04/04 00:03:51;;;;;;;7.30;4.10;;;7.10;55.30;;;;;;4997427;28;20026;-61
2021/04/04 00:06:17;;;;;;;9.25;4.55;;;7.00;55.60;;;;;;5015178;28;20049;-62
2021/04/04 00:08:43;;;;;;;7.78;4.28;;;7.10;55.50;;;;;;4996968;28;20042;-61
2021/04/04 00:11:08;;;;;;;6.15;4.72;;;7.00;55.50;;;;;;5003374;28;20089;-61
2021/04/04 00:13:34;;;;;;;8.25;5.15;;;6.90;55.30;;;;;;4995686;28;20099;-61
2021/04/04 00:16:00;;;;;;;7.82;4.53;;;6.80;55.40;;;;;;5002490;28;20065;-61
2021/04/04 00:18:25;;;;;;;8.52;4.85;;;6.70;55.50;;;;;;4997864;28;20495;-59
2021/04/04 00:20:51;;;;;;;8.15;5.05;;;6.60;56.00;;;;;;4999514;28;20078;-60
2021/04/04 00:23:17;;;;;;;8.25;5.00;;;6.60;56.00;;;;;;5010882;28;20057;-61
2021/04/04 00:25:43;;;;;;;8.60;4.38;;;6.60;56.90;;;;;;4996218;28;20027;-61
2021/04/04 00:28:08;;;;;;;7.28;4.78;;;6.50;56.50;;;;;;4999720;28;20152;-60
2021/04/04 00:30:34;;;;;;;7.68;4.32;;;6.40;57.10;;;;;;4999482;28;20462;-61
2021/04/04 00:32:59;;;;;;;6.28;4.28;;;6.40;57.30;;;;;;4995638;28;20061;-62
2021/04/04 00:35:25;;;;;;;9.63;4.75;;;6.40;57.30;;;;;;4998442;28;20069;-62
2021/04/04 00:37:52;;;;;;;6.80;4.55;;;6.50;57.30;;;;;;4994649;28;20097;-63
2021/04/04 00:40:23;;;;;;;7.68;4.80;;;6.60;57.50;;;;;;4997927;28;20027;-63
2021/04/04 00:42:49;;;;;;;8.32;5.32;;;6.60;57.50;;;;;;4995423;28;20434;-62
2021/04/04 00:45:21;;;;;;;7.40;5.05;;;6.50;57.40;;;;;;5002803;28;20041;-61
2021/04/04 00:47:48;;;;;;;8.30;4.72;;;6.40;57.50;;;;;;4994586;28;20026;-61
2021/04/04 00:50:14;;;;;;;9.20;4.28;;;6.40;57.30;;;;;;4998421;28;20398;-63
2021/04/04 00:52:40;;;;;;;8.60;4.38;;;6.30;57.50;;;;;;4997264;28;20112;-62
2021/04/04 00:55:08;;;;;;;7.50;4.45;;;6.30;58.50;;;;;;4997601;28;20661;-62
2021/04/04 00:57:34;;;;;;;10.13;5.97;;;6.30;57.80;;;;;;5000629;28;20113;-62
2021/04/04 01:00:01;;;;;;;9.32;5.30;;;6.20;58.20;;;;;;4996767;28;20038;-62
2021/04/04 01:02:26;;;;;;;7.55;4.95;;;6.20;58.80;;;;;;5010007;28;20138;-62
2021/04/04 01:04:54;;;;;;;6.53;4.60;;;6.20;58.50;;;;;;5001508;28;20098;-61
2021/04/04 01:07:19;;;;;;;8.68;4.70;;;6.30;58.30;;;;;;4995003;28;20033;-60
2021/04/04 01:09:46;;;;;;;5.95;4.45;;;6.20;58.40;;;;;;5003487;28;20030;-62
2021/04/04 01:12:24;;;;;;;6.68;4.47;;;6.20;58.70;;;;;;5009284;28;20050;-61
2021/04/04 01:14:59;;;;;;;6.88;4.65;;;6.30;58.80;;;;;;4998664;28;20038;-62
2021/04/04 01:17:26;;;;;;;7.53;4.80;;;6.30;58.90;;;;;;5003653;28;20112;-63
2021/04/04 01:20:04;;;;;;;7.05;4.80;;;6.20;59.60;;;;;;4998443;28;20112;-60
2021/04/04 01:22:36;;;;;;;7.65;4.65;;;6.10;60.30;;;;;;5003689;28;20037;-62
2021/04/04 01:25:33;;;;;;;9.10;5.05;;;6.10;61.10;;;;;;4993921;28;20047;-62
2021/04/04 01:28:07;;;;;;;8.15;4.43;;;6.20;59.90;;;;;;5009618;28;20129;-62
2021/04/04 01:30:36;;;;;;;7.22;5.65;;;5.90;61.10;;;;;;5012410;28;20116;-62
2021/04/04 01:33:04;;;;;;;7.72;4.80;;;5.90;62.80;;;;;;5001120;28;20394;-62
2021/04/04 01:35:34;;;;;;;7.05;4.75;;;5.70;62.10;;;;;;5000347;28;20038;-61
2021/04/04 01:38:01;;;;;;;8.57;4.75;;;5.70;62.10;;;;;;5014753;28;20046;-62
2021/04/04 01:40:31;;;;;;;7.90;4.80;;;5.80;62.40;;;;;;5017628;28;20033;-61
2021/04/04 01:43:01;;;;;;;5.65;4.30;;;5.80;62.70;;;;;;5023190;28;20038;-62
2021/04/04 01:45:27;;;;;;;8.88;4.95;;;5.80;63.20;;;;;;5028990;28;20026;-62
2021/04/04 01:47:54;;;;;;;7.07;4.60;;;5.80;62.70;;;;;;5013895;28;20133;-60
2021/04/04 01:50:20;;;;;;;10.18;4.95;;;5.80;62.80;;;;;;5015600;28;20029;-62
2021/04/04 01:52:49;;;;;;;7.78;5.20;;;5.90;63.20;;;;;;5013836;28;20041;-62
2021/04/04 01:55:15;;;;;;;8.10;4.65;;;5.90;63.00;;;;;;5016680;28;20054;-62
2021/04/04 01:57:41;;;;;;;8.02;4.28;;;5.90;62.70;;;;;;5013322;28;20064;-60
2021/04/04 02:00:11;;;;;;;5.35;4.13;;;5.90;62.40;;;;;;5013173;28;20042;-61
2021/04/04 02:02:37;;;;;;;7.47;5.00;;;6.00;62.40;;;;;;5023225;28;20033;-62
2021/04/04 02:05:06;;;;;;;5.63;4.20;;;6.00;62.20;;;;;;5012226;28;20087;-63
2021/04/04 02:07:33;;;;;;;8.25;4.25;;;6.00;61.80;;;;;;5014316;28;20508;-61
2021/04/04 02:09:58;;;;;;;6.50;4.22;;;6.00;61.20;;;;;;5012848;28;20076;-62
2021/04/04 02:12:24;;;;;;;7.70;4.68;;;6.00;60.90;;;;;;5012837;28;20089;-62
2021/04/04 02:14:53;;;;;;;6.15;4.10;;;5.90;60.80;;;;;;5017678;28;20557;-61
2021/04/04 02:17:19;;;;;;;10.77;5.22;;;5.90;60.60;;;;;;5016026;28;20046;-61
2021/04/04 02:19:46;;;;;;;5.78;4.30;;;5.90;60.50;;;;;;5022371;28;20156;-61
2021/04/04 02:22:12;;;;;;;7.50;4.20;;;5.80;60.60;;;;;;5013160;28;20038;-65
2021/04/04 02:24:39;;;;;;;6.80;4.30;;;5.80;60.40;;;;;;4997732;28;20042;-62
2021/04/04 02:27:05;;;;;;;7.38;4.15;;;5.80;60.80;;;;;;5012904;28;20034;-62
2021/04/04 02:29:31;;;;;;;7.07;4.03;;;5.80;61.60;;;;;;5015339;28;20130;-61
2021/04/04 02:32:01;;;;;;;7.60;4.28;;;5.80;62.10;;;;;;5013187;28;20041;-62
2021/04/04 02:34:34;;;;;;;8.95;4.55;;;5.70;62.10;;;;;;5016052;28;20046;-62
2021/04/04 02:37:02;;;;;;;7.22;4.50;;;5.70;61.70;;;;;;5012148;28;20044;-62
2021/04/04 02:39:33;;;;;;;7.88;4.60;;;5.60;61.90;;;;;;5018866;28;20088;-62
2021/04/04 02:42:02;;;;;;;5.47;4.15;;;5.50;62.00;;;;;;5017119;28;20038;-61
2021/04/04 02:44:30;;;;;;;6.80;4.28;;;5.50;62.40;;;;;;5021298;28;20042;-62
2021/04/04 02:47:02;;;;;;;8.10;4.28;;;5.50;63.40;;;;;;4996391;28;20038;-63
2021/04/04 02:49:34;;;;;;;9.43;4.55;;;5.50;62.80;;;;;;5020087;28;20030;-62
2021/04/04 02:52:03;;;;;;;7.63;4.32;;;5.40;62.60;;;;;;5016212;28;20558;-60
2021/04/04 02:54:31;;;;;;;7.85;4.40;;;5.40;62.70;;;;;;5007381;28;20501;-62
2021/04/04 02:56:58;;;;;;;8.35;4.53;;;5.40;63.60;;;;;;5022604;28;20039;-62
2021/04/04 02:59:28;;;;;;;7.47;5.18;;;5.30;64.20;;;;;;5018595;28;20029;-61
2021/04/04 03:01:57;;;;;;;6.60;4.35;;;5.30;64.50;;;;;;5023637;28;20068;-62
2021/04/04 03:04:24;;;;;;;7.68;4.57;;;5.30;64.50;;;;;;5019199;28;20040;-63
2021/04/04 03:06:52;;;;;;;7.68;5.03;;;5.20;64.60;;;;;;5015191;28;20456;-62
2021/04/04 03:09:19;;;;;;;6.50;4.90;;;5.20;64.50;;;;;;5014095;28;20034;-60
2021/04/04 03:11:47;;;;;;;7.47;4.50;;;5.20;64.50;;;;;;5016993;28;20022;-61
2021/04/04 03:14:14;;;;;;;10.50;5.45;;;5.10;65.30;;;;;;5020911;28;20037;-61
2021/04/04 03:16:41;;;;;;;6.50;4.47;;;5.20;65.10;;;;;;5021193;28;20029;-62
2021/04/04 03:19:08;;;;;;;7.78;4.40;;;5.20;65.20;;;;;;4999270;28;20387;-62
2021/04/04 03:21:35;;;;;;;7.38;4.78;;;5.20;66.10;;;;;;5020926;28;20540;-63
2021/04/04 03:24:03;;;;;;;7.60;4.68;;;5.10;65.90;;;;;;5018238;28;20045;-61
2021/04/04 03:26:29;;;;;;;7.32;4.85;;;5.10;65.70;;;;;;5025901;28;20055;-62
2021/04/04 03:28:56;;;;;;;8.15;4.35;;;5.10;65.40;;;;;;5015888;28;20033;-63
2021/04/04 03:31:21;;;;;;;7.90;5.22;;;5.20;65.80;;;;;;5010607;28;20129;-62
2021/04/04 03:33:47;;;;;;;7.95;4.97;;;5.20;67.10;;;;;;5026757;28;20054;-62
2021/04/04 03:36:18;;;;;;;9.13;5.50;;;5.10;68.90;;;;;;5024566;28;20029;-62
2021/04/04 03:38:45;;;;;;;8.52;4.68;;;5.00;70.30;;;;;;5010544;28;20311;-63
2021/04/04 03:41:13;;;;;;;10.40;4.85;;;4.90;71.30;;;;;;5019842;28;20139;-61
2021/04/04 03:43:40;;;;;;;8.65;4.90;;;4.90;71.60;;;;;;5012443;28;20037;-61
2021/04/04 03:46:10;;;;;;;8.88;5.20;;;5.00;71.70;;;;;;5024388;28;20041;-63
2021/04/04 03:48:37;;;;;;;9.13;5.00;;;4.90;72.40;;;;;;5011531;28;20057;-63
2021/04/04 03:51:06;;;;;;;6.53;4.55;;;4.80;72.40;;;;;;5016405;28;20172;-62
2021/04/04 03:53:34;;;;;;;8.52;4.63;;;4.70;72.10;;;;;;5021303;28;20072;-62
2021/04/04 03:56:03;;;;;;;8.55;4.85;;;4.60;71.10;;;;;;5017537;28;20069;-63
2021/04/04 03:58:32;;;;;;;10.32;4.93;;;4.70;71.00;;;;;;5018290;28;20033;-61
2021/04/04 04:01:00;;;;;;;6.70;4.47;;;4.60;70.40;;;;;;5011595;28;20030;-63
2021/04/04 04:03:26;;;;;;;7.45;4.78;;;4.40;71.10;;;;;;5020624;28;20037;-63
2021/04/04 04:05:54;;;;;;;5.70;4.28;;;4.30;71.70;;;;;;5021986;28;20125;-64
2021/04/04 04:08:20;;;;;;;6.13;4.10;;;4.30;72.50;;;;;;5011965;28;20054;-63
2021/04/04 04:10:47;;;;;;;7.15;4.50;;;4.30;71.80;;;;;;5008203;28;20026;-62
2021/04/04 04:13:14;;;;;;;5.18;4.13;;;4.30;71.60;;;;;;5021948;28;20124;-61
2021/04/04 04:15:40;;;;;;;6.20;4.22;;;4.40;71.00;;;;;;5013112;28;20030;-62
2021/04/04 04:18:07;;;;;;;9.88;4.40;;;4.50;70.50;;;;;;5011442;28;20038;-62
2021/04/04 04:20:34;;;;;;;10.02;4.90;;;4.50;70.40;;;;;;5011843;28;20030;-63
2021/04/04 04:23:06;;;;;;;7.43;4.70;;;4.60;69.20;;;;;;5008660;28;20080;-62
2021/04/04 04:25:32;;;;;;;9.95;5.80;;;4.40;69.80;;;;;;5007092;28;20034;-63
2021/04/04 04:27:58;;;;;;;12.57;7.78;;;4.50;70.10;;;;;;5015911;28;20057;-63
2021/04/04 04:30:25;;;;;;;9.40;5.70;;;4.60;70.30;;;;;;5023222;28;20029;-63
2021/04/04 04:32:58;;;;;;;7.78;5.00;;;4.60;70.80;;;;;;5013373;28;20033;-63
2021/04/04 04:35:25;;;;;;;8.07;4.75;;;4.60;71.40;;;;;;5018762;28;20038;-63
2021/04/04 04:37:51;;;;;;;8.55;4.45;;;4.60;71.30;;;;;;5015540;28;20493;-63
2021/04/04 04:40:18;;;;;;;9.85;4.80;;;4.70;72.30;;;;;;5018808;28;20413;-62
2021/04/04 04:42:48;;;;;;;8.30;4.53;;;4.60;71.60;;;;;;5017268;28;20037;-61
2021/04/04 04:45:37;;;;;;;6.82;4.07;;;4.60;70.40;;;;;;5023879;28;20026;-61
2021/04/04 04:48:03;;;;;;;5.60;4.43;;;4.50;70.30;;;;;;5030094;28;20043;-62
2021/04/04 04:50:30;;;;;;;7.72;4.65;;;4.50;70.80;;;;;;5021717;28;20029;-61
2021/04/04 04:52:58;;;;;;;5.82;4.63;;;4.50;71.50;;;;;;5021439;28;20373;-62
2021/04/04 04:55:25;;;;;;;7.18;4.20;;;4.50;72.10;;;;;;5015550;28;20084;-63
2021/04/04 04:57:50;;;;;;;9.38;5.10;;;4.60;71.60;;;;;;5013925;28;20045;-60
2021/04/04 05:00:17;;;;;;;8.13;5.43;;;4.70;71.00;;;;;;5015202;28;20393;-63
2021/04/04 05:02:42;;;;;;;8.82;5.10;;;4.70;71.10;;;;;;5020998;28;20568;-60
2021/04/04 05:05:11;;;;;;;6.75;4.70;;;4.70;70.90;;;;;;5026503;28;20190;-63
2021/04/04 05:07:39;;;;;;;8.35;4.60;;;4.70;71.10;;;;;;5019703;28;20037;-61
2021/04/04 05:10:10;;;;;;;7.25;4.78;;;4.80;71.60;;;;;;5017393;28;20038;-62
2021/04/04 05:12:45;;;;;;;10.50;4.55;;;4.80;71.80;;;;;;5014098;28;20101;-62
2021/04/04 05:15:11;;;;;;;8.25;4.90;;;4.90;71.70;;;;;;5028247;28;20064;-62
2021/04/04 05:17:37;;;;;;;7.43;4.78;;;4.90;71.20;;;;;;4995914;28;20057;-61
2021/04/04 05:20:08;;;;;;;7.65;4.85;;;5.00;70.90;;;;;;5024695;28;20433;-62
2021/04/04 05:22:36;;;;;;;6.82;4.80;;;5.00;70.30;;;;;;5014031;28;20040;-65
2021/04/04 05:25:02;;;;;;;7.75;4.88;;;5.00;70.20;;;;;;5020220;28;20034;-63
2021/04/04 05:27:28;;;;;;;6.05;4.70;;;5.00;69.90;;;;;;5014902;28;20076;-63
2021/04/04 05:29:58;;;;;;;6.90;4.88;;;5.10;70.30;;;;;;5023957;28;20065;-64
2021/04/04 05:32:24;;;;;;;7.25;4.55;;;5.20;70.10;;;;;;5026851;28;20095;-63
2021/04/04 05:34:50;;;;;;;6.68;4.50;;;5.20;69.50;;;;;;5023717;28;20038;-62
2021/04/04 05:37:15;;;;;;;7.28;4.65;;;5.30;69.40;;;;;;5027512;28;20080;-61
2021/04/04 05:39:41;;;;;;;8.25;4.82;;;5.30;69.40;;;;;;5018297;28;20030;-63
2021/04/04 05:42:08;;;;;;;6.32;4.55;;;5.30;69.90;;;;;;5021882;28;20034;-63
2021/04/04 05:44:48;;;;;;;9.32;6.47;;;5.30;69.60;;;;;;5020154;28;20030;-63
2021/04/04 05:47:44;;;;;;;8.80;4.63;;;5.20;69.20;;;;;;5007084;28;20117;-63
2021/04/04 05:50:41;;;;;;;9.43;4.40;;;5.20;68.30;;;;;;5017475;28;20519;-63
2021/04/04 05:53:24;;;;;;;6.18;4.60;;;5.20;68.00;;;;;;5018240;28;20042;-63
2021/04/04 05:55:56;;;;;;;8.60;4.72;;;5.10;68.50;;;;;;5021754;28;20092;-64
2021/04/04 05:58:30;;;;;;;7.85;4.95;;;5.30;68.30;;;;;;5013499;28;20029;-65
2021/04/04 06:01:00;;;;;;;12.68;5.10;;;5.10;68.60;;;;;;5021505;28;20048;-61
2021/04/04 06:03:28;;;;;;;7.05;4.72;;;4.80;70.00;;;;;;5026752;28;20034;-62
2021/04/04 06:06:44;;;;;;;10.35;5.07;;;4.80;70.80;;;;;;5021571;28;20431;-61
2021/04/04 06:09:30;;;;;;;10.57;4.90;;;4.60;71.20;;;;;;5011801;28;20034;-62
2021/04/04 06:12:29;;;;;;;10.05;5.05;;;4.80;70.90;;;;;;5016300;28;20061;-62
2021/04/04 06:15:17;;;;;;;10.68;5.30;;;4.90;71.10;;;;;;5014151;28;20034;-61
2021/04/04 06:18:04;;;;;;;11.55;5.95;;;5.00;71.50;;;;;;5026181;28;20100;-63
2021/04/04 06:21:10;;;;;;;15.13;6.82;;;5.20;71.30;;;;;;5015329;28;20030;-66
2021/04/04 06:23:42;;;;;;;;;;;4.80;73.70;;;;;;5024748;28;20026;-63
2021/04/04 06:26:13;;;;;;;11.95;5.72;;;4.70;75.00;;;;;;5011493;28;19921;-63
2021/04/04 06:29:11;;;;;;;13.77;6.68;;;4.80;74.90;;;;;;5017748;28;20033;-63
2021/04/04 06:32:11;;;;;;;13.57;6.47;;;4.90;74.50;;;;;;5030915;28;20037;-63
2021/04/04 06:34:39;;;;;;;16.08;6.75;;;4.90;76.50;;;;;;4998748;28;20037;-62
2021/04/04 06:37:43;;;;;;;15.35;7.22;;;4.80;76.60;;;;;;5006251;28;20476;-64
2021/04/04 06:40:42;;;;;;;18.95;7.07;;;4.90;77.80;;;;;;5003083;28;20186;-63
2021/04/04 06:43:35;;;;;;;17.80;7.10;;;5.00;77.50;;;;;;5011186;28;20045;-62
2021/04/04 06:46:28;;;;;;;18.17;7.90;;;5.10;77.70;;;;;;5011252;28;20033;-62
2021/04/04 06:49:25;;;;;;;22.67;8.27;;;5.20;77.80;;;;;;5015682;28;20485;-62
2021/04/04 06:52:03;;;;;;;20.73;8.13;;;5.30;78.10;;;;;;5012643;28;20029;-63
2021/04/04 06:55:05;;;;;;;19.05;7.97;;;5.30;78.70;;;;;;5020267;28;20053;-63
2021/04/04 06:57:52;;;;;;;20.63;8.35;;;5.50;78.10;;;;;;5014258;28;20122;-59
2021/04/04 07:00:37;;;;;;;17.55;8.05;;;5.50;78.90;;;;;;5019313;28;20040;-62
2021/04/04 07:03:08;;;;;;;21.77;8.73;;;5.70;78.90;;;;;;5032068;28;20037;-63
2021/04/04 07:05:41;;;;;;;20.88;9.23;;;5.80;77.90;;;;;;5027001;28;20049;-62
2021/04/04 07:08:27;;;;;;;21.73;8.80;;;5.60;78.40;;;;;;5011195;28;20034;-63
2021/04/04 07:10:56;;;;;;;20.10;9.32;;;5.70;78.20;;;;;;5019457;28;20315;-63
2021/04/04 07:13:29;;;;;;;26.58;9.13;;;5.60;78.70;;;;;;5019870;28;20037;-63
2021/04/04 07:16:28;;;;;;;18.95;8.00;;;5.70;78.30;;;;;;5010994;28;20041;-64
2021/04/04 07:19:12;;;;;;;29.92;10.35;;;5.80;78.40;;;;;;5011356;28;20088;-62
2021/04/04 07:22:14;;;;;;;29.17;9.68;;;5.80;78.80;;;;;;5012824;28;20026;-62
2021/04/04 07:24:48;;;;;;;21.30;9.15;;;5.90;78.30;;;;;;5011334;28;20042;-63
2021/04/04 07:27:47;;;;;;;20.60;8.80;;;5.80;78.90;;;;;;5013293;28;20400;-63
2021/04/04 07:30:57;;;;;;;21.67;9.45;;;5.90;78.90;;;;;;5017506;28;20382;-64
2021/04/04 07:33:47;;;;;;;24.55;10.63;;;6.20;77.60;;;;;;4968463;28;20122;-63
2021/04/04 07:36:37;;;;;;;28.02;10.27;;;6.50;77.00;;;;;;5019481;28;20068;-61
2021/04/04 07:39:18;;;;;;;19.58;10.18;;;6.50;77.00;;;;;;5031425;28;20071;-62
2021/04/04 07:42:19;;;;;;;27.83;10.98;;;6.50;77.30;;;;;;5028186;28;20029;-63
2021/04/04 07:44:47;;;;;;;28.95;11.15;;;6.50;76.80;;;;;;5023785;28;20049;-61
2021/04/04 07:47:37;;;;;;;28.55;11.27;;;6.40;77.10;;;;;;5026723;28;20037;-63
2021/04/04 07:50:07;;;;;;;30.80;11.77;;;6.40;77.80;;;;;;5031332;28;20109;-63
2021/04/04 07:52:39;;;;;;;24.50;11.55;;;6.30;78.10;;;;;;5031916;28;20083;-63
2021/04/04 07:55:05;;;;;;;25.90;12.68;;;6.30;78.80;;;;;;5026809;28;20097;-63
2021/04/04 07:58:12;;;;;;;26.05;12.88;;;6.30;78.70;;;;;;5030981;28;20076;-64
2021/04/04 08:00:46;;;;;;;24.95;12.52;;;6.50;78.20;;;;;;5018112;28;20592;-62
2021/04/04 08:03:23;;;;;;;25.98;12.23;;;6.60;77.60;;;;;;4997438;28;20109;-63
2021/04/04 08:05:51;;;;;;;31.60;12.82;;;6.60;77.70;;;;;;5035896;28;20041;-62
2021/04/04 08:08:22;;;;;;;29.52;12.23;;;6.90;77.10;;;;;;5020484;28;20037;-63
2021/04/04 08:11:01;;;;;;;28.00;13.40;;;6.90;76.40;;;;;;5018862;28;20022;-63
2021/04/04 08:13:36;;;;;;;28.40;12.32;;;7.00;75.80;;;;;;5031270;28;20563;-64
2021/04/04 08:16:09;;;;;;;25.05;13.20;;;7.00;76.20;;;;;;5021390;28;20026;-63
2021/04/04 08:18:35;;;;;;;26.13;12.52;;;7.20;75.10;;;;;;5037071;28;20523;-61
2021/04/04 08:21:05;;;;;;;25.85;13.30;;;7.50;74.20;;;;;;5029687;28;20081;-62
2021/04/04 08:23:55;;;;;;;27.75;11.65;;;7.40;74.40;;;;;;5014191;28;20038;-63
2021/04/04 08:26:29;;;;;;;24.70;11.27;;;7.50;74.10;;;;;;5017153;28;20034;-63
2021/04/04 08:29:20;;;;;;;18.42;11.00;;;7.40;74.00;;;;;;5030469;28;20061;-61
2021/04/04 08:31:49;;;;;;;25.05;11.45;;;7.50;72.50;;;;;;5018769;28;20577;-61
2021/04/04 08:34:23;;;;;;;20.92;11.52;;;7.00;73.90;;;;;;5017176;28;20044;-64
2021/04/04 08:36:53;;;;;;;28.15;12.85;;;7.10;74.40;;;;;;5031864;28;20034;-62
2021/04/04 08:39:23;;;;;;;20.73;10.82;;;7.50;73.70;;;;;;5015039;28;20477;-62
2021/04/04 08:41:49;;;;;;;23.17;11.30;;;8.00;73.40;;;;;;5030992;28;20528;-62
2021/04/04 08:44:25;;;;;;;25.30;11.50;;;8.30;70.30;;;;;;5017666;28;20038;-61
2021/04/04 08:47:31;;;;;;;22.00;11.65;;;8.50;68.90;;;;;;5017482;28;20045;-61
2021/04/04 08:49:59;;;;;;;21.48;12.02;;;8.30;69.50;;;;;;5018564;28;20030;-63
2021/04/04 08:52:34;;;;;;;24.83;11.35;;;8.20;69.40;;;;;;4995803;28;20046;-62
2021/04/04 08:55:00;;;;;;;19.77;10.95;;;8.00;69.90;;;;;;5017985;28;20025;-62
2021/04/04 08:57:35;;;;;;;21.13;10.07;;;8.00;69.30;;;;;;4999703;28;20049;-62
2021/04/04 09:00:08;;;;;;;24.63;11.38;;;8.30;68.40;;;;;;5017802;28;20026;-61
2021/04/04 09:02:59;;;;;;;24.88;11.07;;;8.50;68.50;;;;;;5018590;28;20034;-61
2021/04/04 09:05:27;;;;;;;25.92;11.60;;;8.70;68.20;;;;;;5013150;28;20030;-63
2021/04/04 09:07:56;;;;;;;20.35;10.65;;;8.90;67.60;;;;;;5014740;28;20437;-61
2021/04/04 09:10:23;;;;;;;23.42;10.93;;;9.10;66.90;;;;;;5015217;28;20033;-62
2021/04/04 09:12:49;;;;;;;24.10;11.30;;;8.80;67.30;;;;;;5023397;28;20040;-61
2021/04/04 09:15:16;;;;;;;27.20;11.07;;;8.20;69.20;;;;;;5036270;28;20041;-61
2021/04/04 09:17:51;;;;;;;22.58;10.18;;;8.30;69.30;;;;;;5034490;28;20033;-63
2021/04/04 09:20:16;;;;;;;18.73;9.63;;;8.60;69.10;;;;;;5035837;28;20034;-62
2021/04/04 09:22:49;;;;;;;31.52;11.23;;;9.00;68.40;;;;;;5030015;28;20188;-61
2021/04/04 09:25:16;;;;;;;23.98;12.32;;;9.30;66.50;;;;;;5025841;28;20049;-62
2021/04/04 09:27:42;;;;;;;23.65;11.65;;;9.10;66.50;;;;;;5018070;28;20037;-62
2021/04/04 09:30:34;;;;;;;27.67;14.35;;;9.10;67.10;;;;;;5036292;28;20037;-60
2021/04/04 09:33:03;;;;;;;20.38;11.85;;;9.00;67.30;;;;;;5026933;28;20156;-62
2021/04/04 09:35:29;;;;;;;26.73;11.50;;;9.00;67.00;;;;;;5012327;28;20034;-61
2021/04/04 09:38:07;;;;;;;21.10;11.23;;;8.80;66.70;;;;;;5013085;28;20036;-61
2021/04/04 09:40:34;;;;;;;24.60;12.45;;;8.80;67.00;;;;;;5013650;28;20116;-62
2021/04/04 09:43:11;;;;;;;19.98;10.98;;;9.00;66.90;;;;;;5013499;28;20749;-62
2021/04/04 09:45:38;;;;;;;23.92;11.55;;;9.20;66.10;;;;;;5029238;28;20042;-60
2021/04/04 09:48:26;;;;;;;20.45;11.82;;;9.10;65.70;;;;;;5017233;28;20144;-61
2021/04/04 09:51:12;;;;;;;21.75;10.82;;;9.30;65.80;;;;;;5010437;28;20041;-62
2021/04/04 09:53:48;;;;;;;18.63;11.07;;;9.60;65.00;;;;;;5021545;28;20400;-62
2021/04/04 09:56:32;;;;;;;20.17;10.88;;;9.90;64.40;;;;;;5028354;28;20032;-60
2021/04/04 09:59:01;;;;;;;23.83;10.60;;;9.70;64.10;;;;;;5014221;28;20046;-62
2021/04/04 10:01:28;;;;;;;25.20;11.40;;;9.60;64.40;;;;;;5020643;28;20117;-63
2021/04/04 10:03:58;;;;;;;25.58;10.95;;;9.60;64.60;;;;;;5010764;28;20045;-62
2021/04/04 10:06:25;;;;;;;22.13;10.82;;;9.50;63.90;;;;;;5030784;28;20107;-64
2021/04/04 10:08:58;;;;;;;20.50;11.07;;;9.40;65.00;;;;;;5012903;28;20022;-64
2021/04/04 10:11:26;;;;;;;25.05;11.35;;;9.60;64.20;;;;;;5012267;28;20121;-62
2021/04/04 10:14:05;;;;;;;17.85;11.25;;;9.60;64.30;;;;;;5016770;28;20045;-61
2021/04/04 10:16:30;;;;;;;25.55;11.48;;;9.60;64.40;;;;;;5031554;28;20049;-63
2021/04/04 10:19:10;;;;;;;21.50;11.82;;;9.70;64.60;;;;;;5027623;28;20496;-61
2021/04/04 10:21:41;;;;;;;24.77;11.20;;;9.70;63.60;;;;;;5008974;28;20044;-61
2021/04/04 10:24:28;;;;;;;22.17;11.50;;;9.60;64.00;;;;;;5011115;28;20029;-61
2021/04/04 10:27:22;;;;;;;20.98;11.45;;;9.50;64.10;;;;;;5012445;28;20505;-62
2021/04/04 10:29:49;;;;;;;20.42;10.18;;;9.70;63.60;;;;;;5002195;28;20030;-61
2021/04/04 10:32:24;;;;;;;21.85;11.10;;;9.80;63.20;;;;;;5013512;28;20034;-62
2021/04/04 10:34:49;;;;;;;18.67;11.18;;;10.00;62.70;;;;;;5007893;28;20029;-60
2021/04/04 10:37:25;;;;;;;17.40;11.10;;;10.20;61.50;;;;;;5011702;28;20501;-60
2021/04/04 10:40:02;;;;;;;18.48;10.98;;;9.90;62.70;;;;;;5009918;28;20080;-62
2021/04/04 10:42:28;;;;;;;16.63;11.10;;;9.80;62.90;;;;;;5012796;28;20050;-61
2021/04/04 10:45:09;;;;;;;19.63;11.40;;;9.80;62.60;;;;;;5027614;28;20037;-61
2021/04/04 10:47:35;;;;;;;17.80;10.15;;;9.50;63.00;;;;;;5007938;28;20628;-58
2021/04/04 10:50:03;;;;;;;19.67;11.65;;;9.50;63.40;;;;;;5009646;28;20121;-61
2021/04/04 10:52:29;;;;;;;23.58;11.60;;;9.60;63.50;;;;;;5013826;28;20062;-63
2021/04/04 10:54:56;;;;;;;23.05;11.43;;;9.30;63.90;;;;;;5008859;28;20048;-58
2021/04/04 10:57:22;;;;;;;28.15;11.68;;;9.40;63.10;;;;;;5012100;28;20037;-63
2021/04/04 10:59:48;;;;;;;19.90;10.70;;;9.50;62.90;;;;;;5011489;28;20033;-62
2021/04/04 11:02:14;;;;;;;16.20;9.85;;;9.40;63.10;;;;;;5012263;28;20033;-62
2021/04/04 11:04:40;;;;;;;24.60;10.38;;;9.50;62.40;;;;;;5013339;28;20489;-61
2021/04/04 11:07:07;;;;;;;18.48;10.27;;;9.60;62.30;;;;;;5017518;28;20156;-61
2021/04/04 11:09:33;;;;;;;22.63;10.63;;;9.70;61.80;;;;;;5010939;28;20026;-60
2021/04/04 11:12:01;;;;;;;18.55;10.48;;;9.70;61.50;;;;;;5014501;28;20175;-61
2021/04/04 11:14:30;;;;;;;20.95;10.43;;;10.00;60.40;;;;;;5010284;28;20045;-59
2021/04/04 11:17:00;;;;;;;23.23;11.50;;;9.70;61.40;;;;;;5013194;28;20030;-61
2021/04/04 11:19:27;;;;;;;18.67;10.10;;;9.30;62.80;;;;;;5011443;28;20034;-61
2021/04/04 11:21:55;;;;;;;23.40;9.80;;;9.30;62.90;;;;;;5015233;28;20193;-61
2021/04/04 11:24:24;;;;;;;17.42;10.45;;;9.30;62.50;;;;;;5028614;28;20096;-62
2021/04/04 11:26:56;;;;;;;25.48;10.18;;;9.40;61.90;;;;;;5009866;28;20042;-61
2021/04/04 11:29:23;;;;;;;23.33;10.40;;;9.50;61.80;;;;;;5013476;28;20045;-60
2021/04/04 11:31:51;;;;;;;22.17;10.32;;;9.60;62.10;;;;;;5013070;28;20042;-61
2021/04/04 11:34:33;;;;;;;20.58;10.80;;;9.60;61.90;;;;;;5032675;28;20034;-63
2021/04/04 11:37:04;;;;;;;20.40;9.70;;;9.60;61.90;;;;;;5030002;28;20041;-62
2021/04/04 11:39:31;;;;;;;22.63;10.82;;;9.60;61.00;;;;;;5012662;28;20026;-60
2021/04/04 11:42:03;;;;;;;21.50;10.35;;;9.60;60.40;;;;;;5013194;28;20407;-61
2021/04/04 11:44:38;;;;;;;19.48;9.82;;;9.80;60.80;;;;;;5031994;28;20033;-61
2021/04/04 11:47:16;;;;;;;21.98;11.05;;;9.80;61.10;;;;;;5011152;28;20425;-62
2021/04/04 11:49:48;;;;;;;17.25;10.75;;;9.80;60.60;;;;;;5011893;28;20034;-60
2021/04/04 11:52:16;;;;;;;23.92;10.77;;;9.60;60.10;;;;;;5031277;28;20065;-60
2021/04/04 11:54:45;;;;;;;24.42;10.15;;;9.40;60.80;;;;;;5011682;28;20026;-61
2021/04/04 11:57:30;;;;;;;22.52;10.55;;;9.50;60.90;;;;;;5014956;28;20022;-61
2021/04/04 11:59:55;;;;;;;22.63;9.60;;;9.80;60.80;;;;;;5022424;28;20805;-61
2021/04/04 12:02:24;;;;;;;19.83;10.05;;;9.70;60.60;;;;;;5028304;28;20048;-61
2021/04/04 12:05:02;;;;;;;20.25;9.45;;;9.80;59.40;;;;;;5011694;28;20037;-61
2021/04/04 12:07:28;;;;;;;19.33;9.45;;;10.00;60.20;;;;;;5012536;28;20033;-62
2021/04/04 12:09:55;;;;;;;19.13;9.73;;;10.00;58.50;;;;;;5011029;28;20045;-62
2021/04/04 12:12:21;;;;;;;23.30;9.20;;;9.80;59.00;;;;;;5011829;28;20128;-61
2021/04/04 12:14:51;;;;;;;19.33;8.95;;;9.70;59.70;;;;;;5011544;28;20038;-61
2021/04/04 12:17:17;;;;;;;19.05;8.98;;;9.60;60.90;;;;;;5011928;28;20042;-62
2021/04/04 12:19:44;;;;;;;21.45;9.43;;;9.60;60.40;;;;;;5029695;28;20037;-63
2021/04/04 12:22:11;;;;;;;18.25;10.27;;;9.50;60.30;;;;;;5030148;28;20088;-61
2021/04/04 12:24:45;;;;;;;19.38;10.02;;;9.70;60.30;;;;;;5011662;28;20049;-60
2021/04/04 12:27:16;;;;;;;16.70;8.95;;;9.80;60.00;;;;;;5012360;28;20042;-61
2021/04/04 12:29:42;;;;;;;21.55;9.18;;;9.80;60.10;;;;;;5028616;28;20033;-61
2021/04/04 12:32:09;;;;;;;19.27;9.45;;;9.80;59.80;;;;;;5031480;28;20469;-61
2021/04/04 12:34:41;;;;;;;17.60;8.77;;;10.10;59.20;;;;;;5022626;28;20438;-62
2021/04/04 12:37:14;;;;;;;16.02;8.48;;;10.50;57.60;;;;;;5011816;28;20038;-63
2021/04/04 12:39:43;;;;;;;19.67;8.88;;;10.60;57.20;;;;;;5011426;28;20486;-61
2021/04/04 12:42:10;;;;;;;17.73;10.15;;;10.60;57.40;;;;;;5011199;28;20581;-62
2021/04/04 12:44:38;;;;;;;14.45;8.20;;;10.50;56.80;;;;;;5026963;28;20037;-61
2021/04/04 12:47:08;;;;;;;20.88;9.27;;;10.40;57.00;;;;;;5030990;28;20072;-60
2021/04/04 12:49:35;;;;;;;17.50;8.75;;;10.40;56.80;;;;;;5016705;28;20052;-58
2021/04/04 12:52:01;;;;;;;15.45;8.30;;;10.40;57.30;;;;;;5015190;28;20504;-62
2021/04/04 12:54:27;;;;;;;18.15;8.68;;;10.60;57.80;;;;;;5020887;28;20068;-62
2021/04/04 12:56:54;;;;;;;17.98;8.77;;;10.50;57.40;;;;;;5016778;28;20112;-61
2021/04/04 12:59:20;;;;;;;16.15;8.45;;;10.50;57.40;;;;;;5032654;28;20033;-63
2021/04/04 13:01:46;;;;;;;17.50;9.25;;;10.90;56.50;;;;;;5030553;28;20037;-61
2021/04/04 13:04:16;;;;;;;15.80;8.65;;;11.10;56.10;;;;;;5024887;28;20040;-60
2021/04/04 13:06:43;;;;;;;19.67;8.27;;;11.10;56.00;;;;;;5034094;28;20404;-62
2021/04/04 13:09:11;;;;;;;13.38;7.40;;;11.50;55.00;;;;;;5023959;28;20030;-62
2021/04/04 13:11:37;;;;;;;17.30;8.20;;;11.50;55.30;;;;;;4997321;28;20049;-61
2021/04/04 13:14:02;;;;;;;19.02;8.15;;;11.50;54.60;;;;;;5022271;28;20033;-61